Time;durP1;ratioP1;P1;durP2;ratioP2;P2;SDS_P1;SDS_P2;PMS_P1;PMS_P2;Temp;Humidity;BMP_temperature;BMP_pressure;BME280_temperature;BME280_humidity;BME280_pressure;Samples;Min_cycle;Max_cycle;Signal;HPM_P1;HPM_P2
2022/12/02 00:00:20;;;;;;;47.13;23.05;;;;;;;5.92;59.17;101981.94;677304;29;1022;-83
2022/12/02 00:00:42;;;;;;;45.35;22.95;;;;;;;6.01;59.04;101995.50;680257;29;1337;-83
2022/12/02 00:01:03;;;;;;;43.97;22.40;;;;;;;5.92;59.20;101983.63;680135;29;1137;-82
2022/12/02 00:01:25;;;;;;;44.75;22.02;;;;;;;5.88;59.12;101990.28;679981;29;1108;-83
2022/12/02 00:01:48;;;;;;;45.25;21.17;;;;;;;5.91;59.37;101987.00;677619;29;872;-82
2022/12/02 00:02:24;;;;;;;51.25;22.45;;;;;;;5.95;59.05;101989.91;677441;29;1088;-83
2022/12/02 00:02:45;;;;;;;54.72;24.08;;;;;;;5.97;59.26;101993.53;677582;29;1069;-83
2022/12/02 00:03:11;;;;;;;50.20;23.00;;;;;;;5.82;59.27;101976.94;677429;29;1406;-83
2022/12/02 00:03:38;;;;;;;48.65;21.30;;;;;;;5.93;59.20;101981.13;677543;29;1259;-83
2022/12/02 00:03:58;;;;;;;48.97;21.13;;;;;;;5.91;58.84;101974.97;677588;29;926;-83
2022/12/02 00:04:22;;;;;;;51.83;21.80;;;;;;;5.93;59.39;101981.13;674769;29;1137;-83
2022/12/02 00:04:43;;;;;;;54.40;22.42;;;;;;;5.93;59.25;101975.97;680296;29;909;-83
2022/12/02 00:05:24;;;;;;;51.10;21.33;;;;;;;5.95;58.78;101974.34;682329;29;1077;-83
2022/12/02 00:05:47;;;;;;;45.80;20.80;;;;;;;5.98;58.84;101978.84;682801;29;1094;-83
2022/12/02 00:06:25;;;;;;;48.67;22.10;;;;;;;6.02;58.93;101984.34;680035;29;1434;-83
2022/12/02 00:06:47;;;;;;;51.70;22.67;;;;;;;6.01;59.01;101985.13;682652;29;831;-82
2022/12/02 00:07:18;;;;;;;53.05;22.23;;;;;;;6.03;58.46;101986.13;680017;28;1353;-83
2022/12/02 00:07:38;;;;;;;53.22;22.20;;;;;;;6.03;59.34;101982.66;674884;29;1367;-84
2022/12/02 00:08:12;;;;;;;47.55;21.20;;;;;;;6.09;58.77;101997.72;672331;29;1165;-83
2022/12/02 00:08:35;;;;;;;45.53;20.98;;;;;;;6.08;59.00;101993.31;674998;29;1090;-83
2022/12/02 00:09:20;;;;;;;49.80;21.65;;;;;;;6.00;59.08;101982.44;674913;29;847;-83
2022/12/02 00:09:42;;;;;;;55.08;23.75;;;;;;;6.07;58.91;101986.34;672443;29;1209;-83
2022/12/02 00:10:25;;;;;;;53.95;23.65;;;;;;;6.00;59.15;101987.63;674909;29;1110;-83
2022/12/02 00:10:46;;;;;;;52.95;22.10;;;;;;;5.93;59.12;101980.22;673385;29;1153;-82
2022/12/02 00:11:26;;;;;;;51.60;22.05;;;;;;;5.94;59.02;101977.75;675073;29;1237;-83
2022/12/02 00:11:47;;;;;;;49.75;21.65;;;;;;;5.98;59.13;101987.53;680649;29;827;-83
2022/12/02 00:12:26;;;;;;;48.80;21.88;;;;;;;6.00;59.15;101977.25;677999;29;1101;-83
2022/12/02 00:12:46;;;;;;;50.75;23.15;;;;;;;5.95;59.18;101973.47;680640;29;1116;-83
2022/12/02 00:13:18;;;;;;;53.60;24.03;;;;;;;6.02;58.78;101986.06;683160;28;1113;-83
2022/12/02 00:13:42;;;;;;;56.35;25.27;;;;;;;6.00;58.76;101980.75;677887;29;1269;-83
2022/12/02 00:14:15;;;;;;;59.10;26.10;;;;;;;6.07;58.58;101988.94;677911;29;1046;-83
2022/12/02 00:14:37;;;;;;;63.00;26.52;;;;;;;6.08;58.78;101990.72;680670;29;757;-83
2022/12/02 00:15:41;;;;;;;62.38;26.52;;;;;;;6.08;58.60;101989.03;680653;29;1251;-83
2022/12/02 00:16:03;;;;;;;58.95;25.58;;;;;;;6.07;58.78;101983.75;677905;29;1131;-83
2022/12/02 00:16:25;;;;;;;57.72;25.23;;;;;;;6.01;59.04;101974.78;677838;29;1102;-82
2022/12/02 00:16:45;;;;;;;56.63;25.08;;;;;;;6.01;58.70;101977.38;675185;29;855;-82
2022/12/02 00:17:06;;;;;;;55.57;24.83;;;;;;;6.05;58.85;101975.88;677975;29;1333;-82
2022/12/02 00:17:27;;;;;;;53.28;23.92;;;;;;;6.07;59.12;101978.56;683196;29;942;-83
2022/12/02 00:17:48;;;;;;;50.70;23.13;;;;;;;6.09;59.02;101983.06;677873;29;1309;-83
2022/12/02 00:18:13;;;;;;;48.58;23.10;;;;;;;6.03;58.69;101975.75;683126;29;1150;-83
2022/12/02 00:18:34;;;;;;;51.40;23.40;;;;;;;6.08;58.81;101978.66;677766;29;1423;-83
2022/12/02 00:18:55;;;;;;;52.50;24.03;;;;;;;6.09;58.97;101980.47;675471;29;1143;-83
2022/12/02 00:19:16;;;;;;;52.95;23.38;;;;;;;6.04;59.22;101976.66;680325;29;1348;-83
2022/12/02 00:19:37;;;;;;;54.67;23.65;;;;;;;6.04;58.99;101968.91;685872;28;1216;-82
2022/12/02 00:19:57;;;;;;;54.37;23.23;;;;;;;6.02;58.89;101973.09;683301;29;1149;-83
2022/12/02 00:20:18;;;;;;;54.33;23.95;;;;;;;6.00;58.93;101972.97;677739;29;1171;-83
2022/12/02 00:20:40;;;;;;;51.37;23.23;;;;;;;6.05;58.85;101974.97;678163;29;741;-83
2022/12/02 00:21:00;;;;;;;53.45;23.10;;;;;;;6.03;59.18;101973.16;675383;29;1262;-83
2022/12/02 00:21:21;;;;;;;54.17;22.83;;;;;;;5.97;58.86;101965.03;682976;29;1291;-82
2022/12/02 00:21:42;;;;;;;52.33;22.55;;;;;;;6.05;59.01;101975.88;680639;29;1132;-83
2022/12/02 00:22:03;;;;;;;50.95;22.60;;;;;;;6.00;59.29;101966.88;675322;29;1460;-83
2022/12/02 00:22:23;;;;;;;47.25;22.17;;;;;;;6.06;59.34;101980.25;672677;29;1297;-83
2022/12/02 00:22:44;;;;;;;48.13;22.37;;;;;;;6.03;58.75;101968.00;675387;29;853;-82
2022/12/02 00:23:05;;;;;;;47.17;22.52;;;;;;;6.01;58.85;101967.00;675370;29;1143;-83
2022/12/02 00:23:25;;;;;;;50.53;22.98;;;;;;;6.00;58.90;101969.47;675311;29;1186;-83
2022/12/02 00:23:46;;;;;;;49.50;23.10;;;;;;;6.01;58.83;101969.59;675423;29;1265;-83
2022/12/02 00:24:07;;;;;;;52.80;23.65;;;;;;;6.06;59.29;101969.00;672777;29;1239;-83
2022/12/02 00:24:28;;;;;;;51.83;23.35;;;;;;;6.03;58.84;101967.09;672674;29;1486;-83
2022/12/02 00:24:49;;;;;;;53.40;23.50;;;;;;;6.03;58.84;101967.09;672950;29;726;-83
2022/12/02 00:25:09;;;;;;;53.77;23.77;;;;;;;6.06;59.03;101969.00;671965;29;1213;-83
2022/12/02 00:25:31;;;;;;;54.53;23.38;;;;;;;6.06;58.96;101977.66;680074;29;1907;-83
2022/12/02 00:25:53;;;;;;;55.05;22.77;;;;;;;6.02;59.31;101965.31;685899;28;779;-83
2022/12/02 00:26:14;;;;;;;53.15;22.75;;;;;;;5.96;59.21;101965.78;683074;29;1229;-83
2022/12/02 00:26:34;;;;;;;51.73;22.80;;;;;;;6.00;59.47;101972.06;680563;29;1089;-83
2022/12/02 00:26:55;;;;;;;47.47;22.30;;;;;;;5.99;59.28;101970.28;680669;29;756;-83
2022/12/02 00:27:16;;;;;;;50.50;22.52;;;;;;;6.04;59.33;101974.09;677813;29;1599;-83
2022/12/02 00:27:37;;;;;;;51.50;22.88;;;;;;;5.99;59.12;101962.50;675396;29;1588;-83
2022/12/02 00:27:58;;;;;;;52.75;23.23;;;;;;;5.98;59.58;101958.13;675462;29;1348;-83
2022/12/02 00:28:19;;;;;;;47.47;22.27;;;;;;;5.97;59.14;101969.28;675309;29;1042;-83
2022/12/02 00:28:40;;;;;;;49.47;22.20;;;;;;;5.94;59.16;101963.91;680887;29;1235;-83
2022/12/02 00:29:00;;;;;;;50.72;22.10;;;;;;;5.96;59.38;101965.78;683322;29;1408;-83
2022/12/02 00:29:21;;;;;;;52.70;22.45;;;;;;;5.94;59.30;101966.50;680508;29;1157;-82
2022/12/02 00:29:42;;;;;;;51.45;21.88;;;;;;;5.93;59.01;101965.59;678018;29;1309;-83
2022/12/02 00:30:03;;;;;;;51.83;21.27;;;;;;;5.94;59.05;101969.97;682494;29;1207;-83
2022/12/02 00:30:25;;;;;;;51.42;21.25;;;;;;;5.99;59.47;101976.38;685833;28;1483;-83
2022/12/02 00:30:46;;;;;;;51.00;21.85;;;;;;;5.97;59.09;101970.19;677938;29;1379;-83
2022/12/02 00:31:06;;;;;;;52.07;22.10;;;;;;;6.01;59.17;101969.59;677971;29;1164;-82
2022/12/02 00:31:27;;;;;;;53.10;22.50;;;;;;;5.95;59.16;101969.19;680690;29;1186;-83
2022/12/02 00:31:48;;;;;;;53.77;22.63;;;;;;;6.00;59.43;101970.38;677973;29;1090;-83
2022/12/02 00:32:09;;;;;;;48.45;22.45;;;;;;;6.02;59.32;101979.16;680449;28;1245;-83
2022/12/02 00:32:30;;;;;;;48.08;22.08;;;;;;;5.95;59.64;101969.19;680676;29;1323;-83
2022/12/02 00:32:50;;;;;;;47.75;22.48;;;;;;;5.99;59.53;101968.59;683405;28;813;-83
2022/12/02 00:33:11;;;;;;;50.40;22.20;;;;;;;5.96;59.29;101960.59;680632;29;1213;-83
2022/12/02 00:33:32;;;;;;;51.80;22.57;;;;;;;5.99;59.24;101967.69;675589;29;1032;-83
2022/12/02 00:33:53;;;;;;;52.80;22.10;;;;;;;5.99;59.52;101960.81;678147;29;1160;-82
2022/12/02 00:34:14;;;;;;;52.75;22.40;;;;;;;5.92;59.13;101958.63;672800;29;1212;-83
2022/12/02 00:34:34;;;;;;;53.60;22.70;;;;;;;5.95;59.70;101969.19;672878;29;1059;-82
2022/12/02 00:34:55;;;;;;;54.35;22.83;;;;;;;5.95;59.74;101964.00;675404;29;1162;-82
2022/12/02 00:35:16;;;;;;;53.08;22.40;;;;;;;5.96;59.33;101970.09;677828;29;1127;-83
2022/12/02 00:35:37;;;;;;;54.33;22.23;;;;;;;5.99;59.08;101963.41;677719;29;1151;-83
2022/12/02 00:35:58;;;;;;;53.97;22.02;;;;;;;5.97;59.32;101949.47;680411;29;1201;-83
2022/12/02 00:36:19;;;;;;;53.50;22.20;;;;;;;6.05;59.25;101967.19;677604;29;1172;-83
2022/12/02 00:36:40;;;;;;;50.80;22.67;;;;;;;6.01;59.41;101964.41;675112;29;1175;-82
2022/12/02 00:37:01;;;;;;;49.83;22.40;;;;;;;5.94;59.61;101953.56;680355;29;1081;-82
2022/12/02 00:37:21;;;;;;;50.08;22.50;;;;;;;5.99;59.60;101963.41;682906;29;1202;-82
2022/12/02 00:37:42;;;;;;;48.40;21.58;;;;;;;5.99;59.16;101966.00;683040;29;796;-83
2022/12/02 00:38:03;;;;;;;45.43;21.00;;;;;;;6.00;59.09;101961.69;682892;28;1162;-82
2022/12/02 00:38:24;;;;;;;44.75;20.50;;;;;;;5.93;59.42;101955.22;680252;29;1285;-82
2022/12/02 00:38:45;;;;;;;48.40;21.65;;;;;;;5.95;59.49;101958.81;680475;29;748;-83
2022/12/02 00:39:06;;;;;;;48.88;21.70;;;;;;;5.95;59.59;101956.22;675165;29;1079;-83
2022/12/02 00:39:27;;;;;;;50.30;22.00;;;;;;;5.91;59.55;101950.72;677681;29;1320;-83
2022/12/02 00:39:47;;;;;;;50.28;22.02;;;;;;;5.83;59.49;101948.53;675280;29;717;-82
2022/12/02 00:40:09;;;;;;;50.87;22.70;;;;;;;5.93;59.62;101965.59;675204;29;1219;-83
2022/12/02 00:40:29;;;;;;;50.72;22.33;;;;;;;5.87;59.67;101952.22;680498;29;1331;-82
2022/12/02 00:40:50;;;;;;;50.63;22.60;;;;;;;5.86;59.81;101951.34;678069;29;1052;-82
2022/12/02 00:41:12;;;;;;;50.00;22.48;;;;;;;5.93;59.65;101960.41;670014;29;1254;-82
2022/12/02 00:41:32;;;;;;;49.17;22.48;;;;;;;5.91;59.58;101951.66;675281;29;1150;-83
2022/12/02 00:41:53;;;;;;;49.03;22.25;;;;;;;5.97;59.52;101965.03;678088;29;729;-82
2022/12/02 00:42:14;;;;;;;51.08;22.48;;;;;;;5.94;59.51;101949.25;682986;29;1510;-82
2022/12/02 00:42:35;;;;;;;52.53;22.40;;;;;;;6.02;59.43;101970.50;683181;29;1195;-83
2022/12/02 00:46:30;;;;;;;53.70;23.40;;;;;;;5.94;59.65;101957.03;677876;29;1244;-82
2022/12/02 00:46:33;;;;;;;50.78;21.15;;;;;;;6.01;59.61;101953.13;677530;29;1257;-82
2022/12/02 00:46:54;;;;;;;50.60;21.40;;;;;;;5.99;59.91;101955.63;675064;29;1540;-83
2022/12/02 00:47:14;;;;;;;49.60;22.27;;;;;;;6.03;59.32;101961.94;669945;29;1193;-83
2022/12/02 00:47:35;;;;;;;51.88;23.20;;;;;;;5.99;59.51;101955.63;665002;29;1144;-83
2022/12/02 00:47:56;;;;;;;50.85;22.95;;;;;;;5.95;59.18;101948.44;670215;29;808;-83
2022/12/02 00:48:18;;;;;;;53.97;23.33;;;;;;;6.01;59.39;101953.13;669733;29;1329;-83
2022/12/02 00:48:39;;;;;;;57.38;22.90;;;;;;;6.01;59.83;101959.22;672749;29;780;-83
2022/12/02 00:49:05;;;;;;;56.88;22.73;;;;;;;5.97;59.38;101952.06;675330;29;1072;-83
2022/12/02 00:49:26;;;;;;;52.05;22.05;;;;;;;5.97;59.98;101949.47;683022;29;1071;-82
2022/12/02 00:49:46;;;;;;;48.00;22.50;;;;;;;5.84;59.71;101939.09;677966;29;1065;-83
2022/12/02 00:50:08;;;;;;;47.05;22.30;;;;;;;5.93;59.43;101943.94;677865;29;1076;-83
2022/12/02 00:50:28;;;;;;;49.53;22.05;;;;;;;5.93;59.33;101939.69;680568;29;1033;-83
2022/12/02 00:50:49;;;;;;;50.78;22.20;;;;;;;6.02;59.65;101962.72;674594;29;1021;-83
2022/12/02 00:51:10;;;;;;;50.60;22.50;;;;;;;5.94;59.70;101941.47;672707;29;1389;-82
2022/12/02 00:51:32;;;;;;;53.25;22.80;;;;;;;5.93;59.71;101949.13;674704;29;1205;-82
2022/12/02 00:51:52;;;;;;;55.08;23.15;;;;;;;5.94;59.85;101954.44;675502;29;789;-83
2022/12/02 00:52:13;;;;;;;53.30;22.30;;;;;;;6.00;59.44;101953.94;680512;29;1144;-82
2022/12/02 00:52:34;;;;;;;48.17;21.70;;;;;;;5.87;59.57;101942.78;683212;29;930;-83
2022/12/02 00:52:54;;;;;;;47.80;21.47;;;;;;;5.96;59.75;101947.66;683165;28;1225;-83
2022/12/02 00:53:21;;;;;;;51.15;22.45;;;;;;;5.96;60.08;101949.34;680647;29;1125;-83
2022/12/02 00:53:42;;;;;;;54.65;23.45;;;;;;;5.92;59.61;101942.16;677943;29;777;-83
2022/12/02 00:54:04;;;;;;;55.83;23.23;;;;;;;5.98;59.55;101948.66;680534;29;1073;-83
2022/12/02 00:54:25;;;;;;;54.33;23.25;;;;;;;5.97;59.91;101946.88;674914;29;1218;-83
2022/12/02 00:54:46;;;;;;;52.73;22.80;;;;;;;5.95;60.05;101943.25;675436;29;765;-83
2022/12/02 00:55:07;;;;;;;52.67;23.10;;;;;;;5.93;59.65;101939.69;675350;29;1050;-83
2022/12/02 00:55:29;;;;;;;48.78;22.42;;;;;;;5.96;59.81;101942.47;670197;29;1194;-83
2022/12/02 00:55:50;;;;;;;50.50;22.63;;;;;;;5.84;59.59;101949.44;675355;29;1221;-83
2022/12/02 00:56:11;;;;;;;48.85;22.73;;;;;;;5.78;60.34;101936.06;680431;29;1205;-83
2022/12/02 00:56:32;;;;;;;50.00;23.20;;;;;;;5.73;59.85;101934.09;680594;29;1238;-83
2022/12/02 00:56:53;;;;;;;48.28;22.42;;;;;;;5.73;60.00;101940.97;677918;29;741;-83
2022/12/02 00:57:14;;;;;;;48.95;22.45;;;;;;;5.75;60.36;101940.25;677779;29;1341;-82
2022/12/02 00:57:35;;;;;;;51.22;22.60;;;;;;;5.82;59.99;101945.88;680559;29;1288;-82
2022/12/02 00:57:56;;;;;;;55.53;23.48;;;;;;;5.90;59.82;101949.84;677895;29;821;-83
2022/12/02 00:58:20;;;;;;;56.13;23.48;;;;;;;5.91;59.56;101942.97;677940;29;1088;-83
2022/12/02 00:58:41;;;;;;;57.17;22.85;;;;;;;6.00;59.66;101951.34;675407;29;784;-83
2022/12/02 00:59:03;;;;;;;51.17;21.58;;;;;;;5.87;60.08;101954.81;683179;29;1055;-83
2022/12/02 00:59:23;;;;;;;51.55;21.65;;;;;;;5.88;59.61;101935.88;685621;28;1375;-82
2022/12/02 00:59:44;;;;;;;53.72;22.10;;;;;;;5.84;59.75;101933.91;680531;29;1092;-83
2022/12/02 01:00:06;;;;;;;57.30;22.95;;;;;;;5.81;59.66;101931.09;680447;29;1146;-83
2022/12/02 01:00:27;;;;;;;60.05;23.48;;;;;;;5.85;59.97;101935.69;677839;29;1303;-82
2022/12/02 01:00:48;;;;;;;57.17;23.40;;;;;;;5.89;59.90;101935.06;677924;29;788;-82
2022/12/02 01:01:09;;;;;;;56.83;22.73;;;;;;;5.87;59.96;101934.09;675092;29;1003;-82
2022/12/02 01:01:31;;;;;;;52.80;21.90;;;;;;;5.90;59.91;101949.84;680536;29;1089;-83
2022/12/02 01:01:52;;;;;;;53.88;21.90;;;;;;;5.89;59.78;101941.16;677934;29;1452;-83
2022/12/02 01:02:12;;;;;;;54.63;22.58;;;;;;;5.87;59.92;101937.59;675148;29;1301;-83
2022/12/02 01:02:33;;;;;;;50.77;22.00;;;;;;;5.90;59.94;101934.31;670302;29;1249;-82
2022/12/02 01:02:54;;;;;;;48.67;22.05;;;;;;;5.86;59.87;101933.22;675371;29;987;-82
2022/12/02 01:03:15;;;;;;;48.83;22.25;;;;;;;5.88;59.80;101933.28;680374;28;1400;-83
2022/12/02 01:03:36;;;;;;;50.65;23.15;;;;;;;5.95;60.01;101940.66;677957;29;1088;-82
2022/12/02 01:03:57;;;;;;;55.10;23.08;;;;;;;5.97;59.96;101939.09;677945;29;1223;-83
2022/12/02 01:04:18;;;;;;;55.13;22.90;;;;;;;5.91;59.75;101933.50;680316;29;1198;-82
2022/12/02 01:04:40;;;;;;;55.65;22.73;;;;;;;5.91;60.01;101930.00;677937;29;1213;-83
2022/12/02 01:05:00;;;;;;;52.40;22.90;;;;;;;5.92;59.51;101930.13;675272;29;1178;-83
2022/12/02 01:05:21;;;;;;;51.63;21.95;;;;;;;5.95;59.55;101932.91;675158;29;1082;-83
2022/12/02 01:05:42;;;;;;;53.05;22.45;;;;;;;5.96;60.09;101939.88;677892;29;1969;-83
2022/12/02 01:06:03;;;;;;;56.90;22.63;;;;;;;5.97;59.88;101935.59;677885;29;1074;-83
2022/12/02 01:06:24;;;;;;;56.90;23.42;;;;;;;5.90;59.78;101934.31;677726;29;1354;-82
2022/12/02 01:06:44;;;;;;;51.05;22.98;;;;;;;5.74;59.90;101933.28;675217;29;1332;-83
2022/12/02 01:07:05;;;;;;;47.17;22.83;;;;;;;5.73;60.19;101931.50;677754;29;1162;-83
2022/12/02 01:07:27;;;;;;;47.58;22.60;;;;;;;5.73;59.96;101931.50;677829;29;1103;-83
2022/12/02 01:07:48;;;;;;;52.58;22.77;;;;;;;5.72;60.25;101932.28;680543;29;1133;-83
2022/12/02 01:08:10;;;;;;;52.83;22.50;;;;;;;5.75;60.70;101936.75;680233;29;1515;-82
2022/12/02 01:08:32;;;;;;;55.92;23.10;;;;;;;5.68;60.37;101932.88;683168;29;1253;-82
2022/12/02 01:08:52;;;;;;;53.73;23.57;;;;;;;5.69;60.59;101937.25;677910;29;1132;-83
2022/12/02 01:09:13;;;;;;;53.05;23.63;;;;;;;5.68;60.37;101927.69;672573;29;1157;-83
2022/12/02 01:09:35;;;;;;;51.72;24.10;;;;;;;5.70;60.65;101939.03;672657;29;1397;-83
2022/12/02 01:10:03;;;;;;;52.08;23.38;;;;;;;5.68;60.73;101935.47;675332;29;1229;-83
2022/12/02 01:10:23;;;;;;;50.70;23.25;;;;;;;5.66;60.55;101937.06;677772;29;1129;-83
2022/12/02 01:10:44;;;;;;;48.50;22.83;;;;;;;5.68;60.82;101932.88;677847;29;1201;-83
2022/12/02 01:11:06;;;;;;;49.05;23.90;;;;;;;5.66;60.61;101939.66;672716;29;1249;-83
2022/12/02 01:11:27;;;;;;;47.97;23.13;;;;;;;5.62;60.84;101927.28;672619;29;1086;-83
2022/12/02 01:11:47;;;;;;;49.50;22.90;;;;;;;5.57;60.92;101921.78;680506;29;1139;-83
2022/12/02 01:12:08;;;;;;;49.10;22.20;;;;;;;5.58;61.18;101925.28;677762;29;1413;-83
2022/12/02 01:12:29;;;;;;;48.92;21.67;;;;;;;5.59;61.11;101927.97;675162;29;1210;-83
2022/12/02 01:12:50;;;;;;;48.40;21.13;;;;;;;5.59;61.03;101921.91;678011;29;726;-82
2022/12/02 01:13:10;;;;;;;49.23;21.60;;;;;;;5.53;60.94;101921.50;677749;29;1202;-82
2022/12/02 01:13:32;;;;;;;52.28;22.77;;;;;;;5.58;61.27;101926.19;683053;29;994;-83
2022/12/02 01:13:52;;;;;;;49.08;23.02;;;;;;;5.62;61.09;101932.47;677989;29;1237;-83
2022/12/02 01:14:13;;;;;;;49.38;23.48;;;;;;;5.64;60.89;101936.03;677777;29;1138;-83
2022/12/02 01:14:34;;;;;;;47.85;22.48;;;;;;;5.64;60.98;101930.84;672737;29;1166;-83
2022/12/02 01:14:54;;;;;;;52.63;22.95;;;;;;;5.67;60.89;101931.09;677929;29;1169;-83
2022/12/02 01:15:15;;;;;;;52.65;22.83;;;;;;;5.64;60.91;101928.28;677703;29;1158;-82
2022/12/02 01:15:36;;;;;;;55.53;23.70;;;;;;;5.63;61.02;101923.88;677856;29;1170;-83
2022/12/02 01:15:57;;;;;;;55.23;23.60;;;;;;;5.64;60.70;101920.50;675126;29;1259;-83
2022/12/02 01:16:17;;;;;;;53.13;23.80;;;;;;;5.63;60.93;101923.88;680413;29;1082;-82
2022/12/02 01:16:38;;;;;;;51.25;23.50;;;;;;;5.69;60.52;101932.06;680493;29;789;-82
2022/12/02 01:16:59;;;;;;;50.47;23.53;;;;;;;5.66;60.74;101924.13;680600;29;686;-83
2022/12/02 01:17:34;;;;;;;54.83;24.17;;;;;;;5.64;60.57;101928.28;675251;29;1063;-83
2022/12/02 01:17:55;;;;;;;55.70;23.58;;;;;;;5.67;60.65;101931.09;677799;29;1089;-83
2022/12/02 01:18:18;;;;;;;51.85;22.52;;;;;;;5.65;60.92;101922.28;677693;29;1293;-83
2022/12/02 01:18:38;;;;;;;49.00;22.27;;;;;;;5.63;60.77;101920.41;677860;29;1269;-83
2022/12/02 01:18:59;;;;;;;48.75;22.02;;;;;;;5.66;60.65;101918.94;677880;29;1171;-83
2022/12/02 01:19:20;;;;;;;51.08;21.95;;;;;;;5.65;60.54;101921.41;674945;29;1450;-83
2022/12/02 01:19:40;;;;;;;54.00;22.60;;;;;;;5.66;60.78;101929.28;672763;29;781;-83
2022/12/02 01:20:01;;;;;;;54.58;23.27;;;;;;;5.66;61.01;101924.13;680453;29;1177;-83
2022/12/02 01:20:21;;;;;;;54.47;23.73;;;;;;;5.66;61.06;101929.28;680405;29;1220;-83
2022/12/02 01:20:42;;;;;;;50.42;23.15;;;;;;;5.70;61.04;101933.88;680587;29;844;-83
2022/12/02 01:21:04;;;;;;;50.87;23.20;;;;;;;5.65;61.12;101927.47;672753;29;1074;-82
2022/12/02 01:21:25;;;;;;;51.10;23.42;;;;;;;5.65;60.74;101926.59;677692;29;1231;-82
2022/12/02 01:21:45;;;;;;;53.17;24.02;;;;;;;5.60;61.30;101915.94;683221;29;1136;-83
2022/12/02 01:22:06;;;;;;;53.90;24.05;;;;;;;5.62;61.11;101922.09;685773;28;1116;-83
2022/12/02 01:22:27;;;;;;;54.00;24.13;;;;;;;5.59;61.36;101919.31;677793;29;1202;-83
2022/12/02 01:22:47;;;;;;;54.60;23.80;;;;;;;5.61;60.95;101915.13;672360;29;1152;-82
2022/12/02 01:23:08;;;;;;;54.55;23.70;;;;;;;5.61;60.66;101912.53;675095;29;1232;-83
2022/12/02 01:23:28;;;;;;;54.80;24.50;;;;;;;5.64;61.10;101911.84;675137;29;1315;-82
2022/12/02 01:23:49;;;;;;;54.60;24.20;;;;;;;5.63;61.09;101926.47;678076;29;760;-82
2022/12/02 01:24:10;;;;;;;55.03;24.42;;;;;;;5.66;60.94;101924.13;677772;29;1208;-83
2022/12/02 01:24:31;;;;;;;58.17;23.88;;;;;;;5.66;60.89;101921.53;677893;29;1154;-83
2022/12/02 01:24:52;;;;;;;60.27;24.57;;;;;;;5.61;60.77;101917.72;675261;29;1244;-83
2022/12/02 01:25:13;;;;;;;59.08;24.10;;;;;;;5.66;60.86;101920.63;677811;29;1022;-83
2022/12/02 01:25:33;;;;;;;58.80;23.83;;;;;;;5.62;60.99;101916.91;675252;29;1978;-83
2022/12/02 01:25:54;;;;;;;59.85;23.23;;;;;;;5.59;61.15;101929.69;675507;29;1088;-83
2022/12/02 01:26:15;;;;;;;61.63;23.53;;;;;;;5.63;60.96;101921.31;677838;29;1093;-83
2022/12/02 01:26:35;;;;;;;58.25;23.95;;;;;;;5.64;61.10;101919.63;680770;29;1056;-82
2022/12/02 01:26:56;;;;;;;57.63;25.13;;;;;;;5.68;60.95;101931.97;677913;29;1255;-82
2022/12/02 01:27:16;;;;;;;57.37;25.33;;;;;;;5.71;61.01;101933.06;675320;29;1393;-83
2022/12/02 01:27:37;;;;;;;59.22;25.05;;;;;;;5.65;61.03;101921.41;675490;29;1073;-83
2022/12/02 01:27:59;;;;;;;61.10;24.13;;;;;;;5.73;60.89;101934.09;678210;29;1213;-82
2022/12/02 01:28:20;;;;;;;59.92;23.88;;;;;;;5.72;60.65;101931.41;683687;29;1197;-83
2022/12/02 01:28:40;;;;;;;60.92;24.25;;;;;;;5.73;60.87;101930.59;683828;29;1332;-83
2022/12/02 01:29:01;;;;;;;59.27;24.30;;;;;;;5.74;60.87;101934.97;683380;29;922;-83
2022/12/02 01:29:22;;;;;;;59.53;23.98;;;;;;;5.67;60.59;101925.91;680764;29;1201;-83
2022/12/02 01:29:42;;;;;;;61.65;24.30;;;;;;;5.75;61.00;101937.69;673243;29;1158;-82
2022/12/02 01:30:03;;;;;;;64.97;25.00;;;;;;;5.77;60.74;101929.09;676261;29;1031;-82
2022/12/02 01:30:24;;;;;;;62.47;25.42;;;;;;;5.73;60.84;101928.91;679036;29;974;-82
2022/12/02 01:30:46;;;;;;;59.10;25.90;;;;;;;5.77;60.65;101929.09;673266;29;1330;-82
2022/12/02 01:31:07;;;;;;;54.55;25.20;;;;;;;5.74;60.73;101922.03;676253;29;1339;-81
2022/12/02 01:31:28;;;;;;;57.80;25.38;;;;;;;5.81;60.85;101939.78;671701;29;1055;-82
2022/12/02 01:31:49;;;;;;;62.85;25.17;;;;;;;5.72;60.96;101924.50;671744;29;1021;-82
2022/12/02 01:32:09;;;;;;;69.57;25.63;;;;;;;5.77;60.90;101936.88;676285;29;1154;-82
2022/12/02 01:32:30;;;;;;;68.55;25.27;;;;;;;5.73;61.12;101921.13;675727;29;1072;-82
2022/12/02 01:32:52;;;;;;;66.45;25.02;;;;;;;5.80;60.82;101925.03;678123;29;1398;-82
2022/12/02 01:33:13;;;;;;;62.74;24.88;;;;;;;5.80;60.92;101937.06;680686;29;1238;-83
2022/12/02 01:33:34;;;;;;;61.70;25.20;;;;;;;5.80;60.78;101932.78;675476;29;1186;-82
2022/12/02 01:33:55;;;;;;;58.37;24.80;;;;;;;5.77;60.80;101926.50;675892;29;1109;-83
2022/12/02 01:34:15;;;;;;;57.55;25.02;;;;;;;5.75;60.80;101924.72;678097;29;1204;-81
2022/12/02 01:34:36;;;;;;;60.20;25.50;;;;;;;5.79;60.89;101932.69;680869;29;1173;-82
2022/12/02 01:34:57;;;;;;;62.43;25.30;;;;;;;5.70;60.70;101931.28;683409;29;1142;-82
2022/12/02 01:35:20;;;;;;;61.67;25.60;;;;;;;5.72;60.69;101923.63;682658;29;1328;-83
2022/12/02 01:35:41;;;;;;;58.20;24.50;;;;;;;5.71;60.61;101927.88;675480;29;1167;-82
2022/12/02 01:36:02;;;;;;;58.55;24.40;;;;;;;5.75;60.83;101927.31;678136;29;1208;-82
2022/12/02 01:36:23;;;;;;;58.40;24.30;;;;;;;5.72;61.31;101927.09;680651;29;1330;-83
2022/12/02 01:36:44;;;;;;;63.00;25.20;;;;;;;5.66;61.15;101921.53;675391;29;1124;-82
2022/12/02 01:37:04;;;;;;;62.15;25.23;;;;;;;5.77;60.93;101936.88;675386;29;1282;-82
2022/12/02 01:37:49;;;;;;;60.77;24.73;;;;;;;5.76;61.03;101933.38;675321;29;1196;-82
2022/12/02 01:38:10;;;;;;;60.50;24.98;;;;;;;5.71;61.21;101927.00;680354;29;1256;-83
2022/12/02 01:38:30;;;;;;;63.88;24.98;;;;;;;5.68;61.24;101925.09;678024;29;1186;-82
2022/12/02 01:38:51;;;;;;;62.65;25.50;;;;;;;5.72;60.87;101929.69;680624;29;1202;-82
2022/12/02 01:39:12;;;;;;;63.80;26.13;;;;;;;5.72;60.74;101924.50;675393;29;1024;-83
2022/12/02 01:39:33;;;;;;;63.08;26.13;;;;;;;5.72;61.26;101921.03;680562;29;1266;-82
2022/12/02 01:39:53;;;;;;;62.80;26.20;;;;;;;5.72;61.04;101927.09;675294;29;1237;-83
2022/12/02 01:40:15;;;;;;;61.30;25.20;;;;;;;5.71;60.71;101917.53;677701;29;1222;-83
2022/12/02 01:40:36;;;;;;;63.13;25.23;;;;;;;5.72;60.87;101929.69;683272;29;1188;-82
2022/12/02 01:40:57;;;;;;;62.33;25.20;;;;;;;5.74;60.72;101927.19;680583;28;1231;-83
2022/12/02 01:41:18;;;;;;;61.92;25.23;;;;;;;5.71;60.83;101927.88;680362;29;1107;-83
2022/12/02 01:41:39;;;;;;;60.50;24.20;;;;;;;5.68;61.25;101925.09;680490;29;1207;-83
2022/12/02 01:42:02;;;;;;;58.67;23.30;;;;;;;5.71;61.10;101919.25;672733;29;1265;-83
2022/12/02 01:42:23;;;;;;;59.70;23.48;;;;;;;5.71;60.90;101920.13;675321;29;1199;-83
2022/12/02 01:42:45;;;;;;;61.90;23.65;;;;;;;5.72;60.76;101932.28;680557;29;1318;-83
2022/12/02 01:43:06;;;;;;;63.95;23.90;;;;;;;5.72;61.05;101929.69;678076;29;1034;-83
2022/12/02 01:43:27;;;;;;;61.20;23.57;;;;;;;5.75;61.24;101929.91;680503;29;1158;-82
2022/12/02 01:43:50;;;;;;;57.15;23.80;;;;;;;5.68;61.16;101916.44;677825;29;1261;-83
2022/12/02 01:44:11;;;;;;;56.80;24.35;;;;;;;5.71;60.76;101930.47;677742;29;1061;-83
2022/12/02 01:44:32;;;;;;;59.83;24.27;;;;;;;5.70;61.06;101936.47;677967;29;1018;-83
2022/12/02 01:44:52;;;;;;;60.75;23.55;;;;;;;5.66;61.38;101929.28;677938;29;950;-83
2022/12/02 01:45:14;;;;;;;62.70;23.73;;;;;;;5.73;61.27;101935.78;675162;29;1071;-83
2022/12/02 01:45:34;;;;;;;63.20;24.20;;;;;;;5.62;61.07;101919.50;675201;29;2010;-83
2022/12/02 01:45:55;;;;;;;63.30;24.40;;;;;;;5.68;61.25;101930.28;670063;29;1118;-82
2022/12/02 01:46:16;;;;;;;64.22;24.40;;;;;;;5.70;61.07;101938.16;680297;29;1168;-82
2022/12/02 01:46:37;;;;;;;63.65;24.05;;;;;;;5.66;60.97;101923.22;680508;29;1250;-83
2022/12/02 01:46:58;;;;;;;67.15;25.02;;;;;;;5.64;61.19;101919.63;677789;29;1166;-83
2022/12/02 01:47:19;;;;;;;63.47;24.88;;;;;;;5.73;61.10;101934.09;680253;29;1353;-82